Peachland, North Carolina
Current Conditions -  °F | °C
As of 10:15 AM on Saturday 20 Dec 2014 (Local Time) from KAFP Reporting Station
Light Rain Light Rain  
Wind Chill: 40°   Ceiling: 3900
Heat Index: 40°   Visibility: 7mi
Dew Point: 37°   Wind: 3mph
Humidity: 89%   Direction: 360°N
Pressure: 30.29"   Gusts: NA
Location:  34.99°N, 80.26°W
Report Text: KAFP 201515Z AUTO 36003KT 7SM -RA OVC039 05/03 A3029 RMK AO2 T00450029
Loading
Personal Weather Stations






























Interactive Weather Map New forecast layout! Learn more

10-Day Weather Forecast

Advertisements
Track Severe Weather on mobile